Time;durP1;ratioP1;P1;durP2;ratioP2;P2;SDS_P1;SDS_P2;PMS_P1;PMS_P2;Temp;Humidity;BMP_temperature;BMP_pressure;BME280_temperature;BME280_humidity;BME280_pressure;Samples;Min_cycle;Max_cycle;Signal;HPM_P1;HPM_P2
2021/03/26 00:01:32;;;;;;;15.30;11.78;;;;;;;13.79;44.29;99995.41;1740068;79;21179;-64
2021/03/26 00:04:04;;;;;;;13.72;10.82;;;;;;;13.78;44.36;100002.59;1750731;80;21666;-65
2021/03/26 00:06:35;;;;;;;15.83;11.48;;;;;;;13.77;44.38;100000.92;1742664;80;21324;-63
2021/03/26 00:09:07;;;;;;;13.85;11.00;;;;;;;13.75;44.37;100009.13;1747406;79;21630;-64
2021/03/26 00:11:36;;;;;;;17.87;11.63;;;;;;;13.74;44.40;100002.64;1747246;79;21194;-64
2021/03/26 00:14:05;;;;;;;13.95;11.50;;;;;;;13.73;44.34;100012.98;1742693;80;21149;-64
2021/03/26 00:16:37;;;;;;;14.65;12.20;;;;;;;13.72;44.37;100008.67;1753674;81;21151;-63
2021/03/26 00:19:06;;;;;;;14.53;11.53;;;;;;;13.72;44.42;100008.67;1739109;79;21190;-64
2021/03/26 00:21:34;;;;;;;14.28;11.60;;;;;;;13.70;44.42;100009.36;1762767;80;21614;-64
2021/03/26 00:24:01;;;;;;;14.98;11.57;;;;;;;13.70;44.41;100012.02;1760863;79;21554;-64
2021/03/26 00:26:29;;;;;;;13.72;11.12;;;;;;;13.69;44.31;100008.50;1766470;80;21158;-66
2021/03/26 00:28:59;;;;;;;15.25;11.35;;;;;;;13.68;44.45;100010.87;1743377;80;21143;-64
2021/03/26 00:31:27;;;;;;;15.58;12.58;;;;;;;13.67;44.40;100009.19;1758240;79;21385;-64
2021/03/26 00:33:56;;;;;;;17.27;11.60;;;;;;;13.66;44.45;100018.23;1764768;80;21198;-63
2021/03/26 00:36:25;;;;;;;13.05;10.95;;;;;;;13.65;44.50;100017.89;1759486;80;21458;-64
2021/03/26 00:38:54;;;;;;;13.50;10.60;;;;;;;13.65;44.41;100009.06;1738127;80;21152;-63
2021/03/26 00:41:22;;;;;;;14.87;10.85;;;;;;;13.64;44.53;100016.25;1754100;80;21582;-64
2021/03/26 00:43:50;;;;;;;13.38;10.90;;;;;;;13.64;44.41;100015.43;1743566;79;21370;-65
2021/03/26 00:46:17;;;;;;;15.70;11.57;;;;;;;13.60;44.38;100012.29;1758203;79;21186;-65
2021/03/26 00:48:45;;;;;;;14.10;11.68;;;;;;;13.62;44.35;100013.42;1754791;80;21151;-65
2021/03/26 00:51:13;;;;;;;15.08;10.93;;;;;;;13.61;44.37;100012.59;1743256;79;21123;-65
2021/03/26 00:53:41;;;;;;;14.10;11.45;;;;;;;13.60;44.36;100010.09;1753608;80;21233;-65
2021/03/26 00:56:10;;;;;;;14.40;10.93;;;;;;;13.59;44.38;100012.46;1753187;79;21217;-65
2021/03/26 00:58:38;;;;;;;14.87;11.43;;;;;;;13.57;44.37;100012.12;1758917;80;21189;-65
2021/03/26 01:01:07;;;;;;;15.13;11.28;;;;;;;13.55;44.44;100015.48;1758092;79;21196;-64
2021/03/26 01:03:35;;;;;;;13.43;11.12;;;;;;;13.56;44.51;100016.33;1750135;80;21131;-65
2021/03/26 01:06:06;;;;;;;15.08;12.18;;;;;;;13.55;44.45;100020.81;1753045;79;21579;-65
2021/03/26 01:08:35;;;;;;;14.65;11.10;;;;;;;13.55;44.42;100020.81;1757901;79;21460;-65
2021/03/26 01:11:14;;;;;;;17.00;11.40;;;;;;;13.53;44.50;100024.17;1742774;79;21218;-65
2021/03/26 01:13:44;;;;;;;16.40;11.00;;;;;;;13.52;44.48;100023.87;1745941;79;21186;-65
2021/03/26 01:16:15;;;;;;;14.80;10.55;;;;;;;13.52;44.49;100024.34;1744756;80;21194;-64
2021/03/26 01:18:45;;;;;;;16.60;11.85;;;;;;;13.50;44.53;100021.03;1759385;80;21166;-64
2021/03/26 01:21:19;;;;;;;14.43;12.07;;;;;;;13.49;44.46;100018.88;1752947;81;21367;-64
2021/03/26 01:23:48;;;;;;;13.83;11.30;;;;;;;13.49;44.44;100020.21;1757741;79;21210;-64
2021/03/26 01:26:15;;;;;;;14.53;10.93;;;;;;;13.47;44.46;100020.90;1795809;78;21162;-63
2021/03/26 01:28:54;;;;;;;15.32;11.75;;;;;;;13.50;44.47;100020.55;1753126;79;28511;-63
2021/03/26 01:31:27;;;;;;;12.75;11.12;;;;;;;13.44;44.50;100023.91;1737538;81;21174;-64
2021/03/26 01:33:56;;;;;;;15.23;11.43;;;;;;;13.44;44.58;100024.42;1769079;80;21286;-63
2021/03/26 01:36:26;;;;;;;14.93;10.88;;;;;;;13.43;44.55;100024.12;1736666;80;21013;-64
2021/03/26 01:38:54;;;;;;;14.13;10.60;;;;;;;13.42;44.51;100025.94;1733134;80;21079;-63
2021/03/26 01:41:36;;;;;;;13.90;11.10;;;;;;;13.42;44.52;100028.60;1791111;78;21151;-63
2021/03/26 01:44:07;;;;;;;13.85;10.93;;;;;;;13.42;44.48;100033.94;1793180;78;21059;-64
2021/03/26 01:46:37;;;;;;;13.18;10.50;;;;;;;13.40;44.48;100030.63;1806495;78;22371;-64
2021/03/26 01:49:07;;;;;;;13.65;10.98;;;;;;;13.39;44.48;100032.98;1744237;80;21071;-63
2021/03/26 01:51:43;;;;;;;14.33;10.75;;;;;;;13.38;44.53;100029.97;1735092;80;21162;-64
2021/03/26 01:54:13;;;;;;;14.85;10.72;;;;;;;13.37;44.57;100030.48;1740945;81;21182;-63
2021/03/26 01:56:43;;;;;;;13.85;11.20;;;;;;;13.36;44.47;100035.48;1741754;81;21162;-63
2021/03/26 01:59:17;;;;;;;13.10;10.53;;;;;;;13.35;44.45;100023.68;1803144;78;21607;-65
2021/03/26 02:01:49;;;;;;;15.63;11.45;;;;;;;13.35;44.48;100029.02;1724852;80;21303;-63
2021/03/26 02:04:24;;;;;;;13.72;10.90;;;;;;;13.33;44.49;100029.19;1766749;79;21121;-63
2021/03/26 02:06:55;;;;;;;14.30;10.95;;;;;;;13.33;44.53;100025.70;1711371;81;21222;-66
2021/03/26 02:09:36;;;;;;;14.43;10.93;;;;;;;13.31;44.52;100032.55;1797748;77;21547;-65
2021/03/26 02:12:12;;;;;;;13.45;10.60;;;;;;;13.31;44.59;100028.54;1802267;78;21361;-64
2021/03/26 02:14:43;;;;;;;13.55;10.70;;;;;;;13.29;44.52;100029.67;1785349;78;21157;-64
2021/03/26 02:17:15;;;;;;;17.07;12.13;;;;;;;13.28;44.51;100036.04;1798286;78;21174;-63
2021/03/26 02:19:56;;;;;;;14.33;10.70;;;;;;;13.27;44.51;100038.36;1794280;77;21204;-64
2021/03/26 02:22:26;;;;;;;15.95;11.85;;;;;;;13.25;44.61;100039.90;1777225;78;21543;-65
2021/03/26 02:24:55;;;;;;;14.70;11.25;;;;;;;13.25;44.63;100037.23;1800725;78;21343;-64
2021/03/26 02:27:28;;;;;;;14.50;11.53;;;;;;;13.25;44.57;100040.37;1752226;77;21445;-64
2021/03/26 02:29:58;;;;;;;13.48;10.60;;;;;;;13.23;44.60;100041.06;1771958;80;28247;-64
2021/03/26 02:32:38;;;;;;;15.38;11.18;;;;;;;13.26;44.61;100032.72;1742705;79;28241;-63
2021/03/26 02:35:21;;;;;;;13.40;10.68;;;;;;;13.21;44.55;100033.75;1691731;83;21250;-65
2021/03/26 02:37:55;;;;;;;14.58;11.05;;;;;;;13.21;44.54;100040.41;1713293;82;21223;-63
2021/03/26 02:40:39;;;;;;;13.58;10.48;;;;;;;13.18;44.66;100036.27;1706763;82;21203;-62
2021/03/26 02:43:14;;;;;;;12.95;10.45;;;;;;;13.17;44.66;100038.13;1709613;82;21174;-64
2021/03/26 02:46:16;;;;;;;13.83;10.23;;;;;;;13.21;44.65;100043.08;1811269;77;29033;-64
2021/03/26 02:49:03;;;;;;;13.75;10.23;;;;;;;13.15;44.67;100038.80;1789723;79;21122;-63
2021/03/26 02:51:42;;;;;;;13.25;10.98;;;;;;;13.13;44.65;100035.97;1806581;77;21369;-63
2021/03/26 02:54:19;;;;;;;12.07;10.08;;;;;;;13.11;44.68;100037.47;1790962;79;21587;-64
2021/03/26 02:56:59;;;;;;;13.08;9.95;;;;;;;13.10;44.68;100043.83;1798189;79;21162;-62
2021/03/26 02:59:41;;;;;;;13.62;10.05;;;;;;;13.09;44.67;100042.67;1803519;77;21154;-62
2021/03/26 03:02:10;;;;;;;13.98;11.60;;;;;;;13.07;44.75;100042.84;1809162;79;21123;-64
2021/03/26 03:04:45;;;;;;;14.43;11.35;;;;;;;13.06;44.76;100046.53;1804213;79;21225;-62
2021/03/26 03:07:26;;;;;;;13.83;10.85;;;;;;;13.06;44.80;100051.05;1802878;79;21579;-64
2021/03/26 03:10:40;;;;;;;13.65;10.48;;;;;;;13.06;44.77;100055.05;1792137;79;21122;-62
2021/03/26 03:13:42;;;;;;;14.85;10.85;;;;;;;13.02;44.77;100058.56;1787291;79;21153;-62
2021/03/26 03:16:33;;;;;;;15.03;11.08;;;;;;;13.01;44.83;100056.06;1795341;77;21158;-62
2021/03/26 03:19:16;;;;;;;12.88;9.95;;;;;;;12.98;44.86;100060.75;1784621;79;21209;-63
2021/03/26 03:21:48;;;;;;;13.78;10.30;;;;;;;12.96;44.87;100069.42;1793610;79;21154;-63
2021/03/26 03:24:25;;;;;;;13.50;10.35;;;;;;;12.95;44.86;100069.59;1791764;79;21134;-63
2021/03/26 03:27:11;;;;;;;14.28;10.18;;;;;;;12.96;44.84;100073.91;1765307;79;21591;-64
2021/03/26 03:29:58;;;;;;;12.05;9.78;;;;;;;12.94;44.79;100077.25;1788636;77;21097;-63
2021/03/26 03:32:46;;;;;;;12.95;9.58;;;;;;;12.93;44.89;100083.09;1760010;79;21333;-62
2021/03/26 03:35:39;;;;;;;13.30;10.48;;;;;;;12.91;44.89;100082.95;1781995;77;21150;-64
2021/03/26 03:38:32;;;;;;;14.90;10.68;;;;;;;12.90;44.89;100084.80;1791939;77;21324;-62
2021/03/26 03:41:08;;;;;;;13.93;10.85;;;;;;;12.88;44.99;100081.95;1786208;79;21190;-67
2021/03/26 03:44:03;;;;;;;11.43;9.58;;;;;;;12.88;44.94;100091.29;1786506;77;22374;-63
2021/03/26 03:47:26;;;;;;;15.43;10.88;;;;;;;12.92;44.92;100084.59;1790800;76;28688;-63
2021/03/26 03:50:31;;;;;;;15.03;11.22;;;;;;;12.87;45.00;100088.31;1755236;78;21146;-63
2021/03/26 03:53:14;;;;;;;13.70;10.32;;;;;;;12.86;44.93;100095.97;1758059;78;22032;-62
2021/03/26 03:56:05;;;;;;;13.28;10.93;;;;;;;12.86;44.95;100090.64;1726677;80;21166;-64
2021/03/26 03:58:40;;;;;;;14.07;11.43;;;;;;;12.83;44.90;100085.16;1754121;78;21130;-63
2021/03/26 04:01:27;;;;;;;17.27;12.45;;;;;;;12.83;44.82;100081.67;1712703;80;22056;-63
2021/03/26 04:04:02;;;;;;;13.98;10.82;;;;;;;12.82;44.88;100081.33;1763636;78;21158;-62
2021/03/26 04:06:40;;;;;;;13.90;11.12;;;;;;;12.77;44.95;100076.02;1767099;78;21190;-63
2021/03/26 04:09:14;;;;;;;14.68;11.78;;;;;;;12.82;44.93;100083.99;1752182;80;21189;-63
2021/03/26 04:11:54;;;;;;;14.38;10.82;;;;;;;12.82;44.99;100083.99;1754607;78;21059;-63
2021/03/26 04:15:06;;;;;;;14.78;11.78;;;;;;;12.85;44.91;100082.33;1794701;78;28738;-65
2021/03/26 04:18:02;;;;;;;17.10;12.25;;;;;;;12.82;44.90;100083.99;1778594;79;21595;-63
2021/03/26 04:20:50;;;;;;;13.25;10.45;;;;;;;12.79;44.88;100088.67;1761214;80;22305;-65
2021/03/26 04:23:25;;;;;;;15.30;10.65;;;;;;;12.77;44.93;100088.02;1758035;80;21188;-64
2021/03/26 04:26:22;;;;;;;13.35;11.25;;;;;;;12.77;44.91;100097.34;1797059;79;21194;-64
2021/03/26 04:29:28;;;;;;;15.32;11.08;;;;;;;12.82;44.98;100096.81;1820163;77;28781;-64
2021/03/26 04:32:06;;;;;;;14.73;10.88;;;;;;;12.76;44.96;100099.67;1755722;80;21151;-63
2021/03/26 04:34:46;;;;;;;12.63;10.58;;;;;;;12.81;45.06;100101.02;1755543;78;28687;-64
2021/03/26 04:37:36;;;;;;;15.55;11.15;;;;;;;12.77;45.05;100101.34;1721569;80;21191;-63
2021/03/26 04:40:10;;;;;;;13.70;10.05;;;;;;;12.78;45.05;100100.33;1754082;79;21559;-63
2021/03/26 04:42:56;;;;;;;14.40;10.58;;;;;;;12.78;45.04;100100.33;1764766;80;21172;-64
2021/03/26 04:46:01;;;;;;;14.53;10.85;;;;;;;12.79;45.14;100103.34;1755450;79;21216;-64
2021/03/26 04:49:28;;;;;;;14.00;10.18;;;;;;;12.81;45.15;100110.34;1755999;79;21215;-64
2021/03/26 04:52:01;;;;;;;14.00;10.08;;;;;;;12.78;45.20;100112.32;1756953;79;21133;-63
2021/03/26 04:54:56;;;;;;;13.15;10.45;;;;;;;12.77;45.16;100118.67;1752563;80;21373;-63
2021/03/26 04:57:58;;;;;;;13.85;10.58;;;;;;;12.79;45.18;100122.00;1749834;80;21653;-63
2021/03/26 05:00:47;;;;;;;13.75;11.20;;;;;;;12.80;45.17;100128.16;1750328;79;21192;-63
2021/03/26 05:03:28;;;;;;;12.25;9.90;;;;;;;12.80;45.22;100130.82;1752634;80;21169;-63
2021/03/26 05:06:06;;;;;;;13.43;9.58;;;;;;;12.82;45.24;100127.98;1743508;81;21143;-63
2021/03/26 05:08:38;;;;;;;15.03;10.60;;;;;;;12.84;45.24;100131.31;1739559;79;21285;-64
2021/03/26 05:11:42;;;;;;;13.18;9.83;;;;;;;12.89;45.23;100126.30;1748090;79;28289;-64
2021/03/26 05:14:19;;;;;;;13.40;10.45;;;;;;;12.86;45.24;100127.97;1704921;83;21599;-64
2021/03/26 05:17:00;;;;;;;12.98;10.13;;;;;;;12.87;45.28;100126.47;1745552;81;21361;-64
2021/03/26 05:20:22;;;;;;;13.03;10.28;;;;;;;12.90;45.33;100133.27;1702988;82;21234;-64
2021/03/26 05:23:19;;;;;;;12.73;9.50;;;;;;;12.90;45.24;100132.80;1733806;81;21175;-64
2021/03/26 05:25:57;;;;;;;13.68;9.43;;;;;;;12.89;45.25;100134.30;1722320;82;21178;-64
2021/03/26 05:28:41;;;;;;;12.43;10.28;;;;;;;12.94;45.17;100130.59;1765039;79;28749;-65
2021/03/26 05:31:47;;;;;;;14.85;10.30;;;;;;;12.92;45.25;100141.45;1719038;83;21651;-64
2021/03/26 05:34:36;;;;;;;13.00;9.88;;;;;;;12.94;44.96;100143.92;1720062;82;21450;-64
2021/03/26 05:37:27;;;;;;;13.28;9.38;;;;;;;12.94;44.98;100140.77;1704809;81;21030;-63
2021/03/26 05:40:25;;;;;;;12.18;9.85;;;;;;;12.95;44.80;100139.75;1707871;81;21168;-64
2021/03/26 05:43:25;;;;;;;11.50;8.73;;;;;;;12.96;44.79;100142.77;1738014;81;21204;-66
2021/03/26 05:46:21;;;;;;;12.45;10.15;;;;;;;12.99;44.92;100146.91;1741052;81;21194;-64
2021/03/26 05:49:22;;;;;;;10.93;8.90;;;;;;;13.06;44.94;100147.06;1759035;79;28769;-63
2021/03/26 05:52:20;;;;;;;;;;;;;;;13.03;44.94;100151.39;1770839;79;21208;-62
2021/03/26 05:55:07;;;;;;;12.35;9.23;;;;;;;13.05;45.09;100156.05;1740997;79;22329;-64
2021/03/26 05:58:20;;;;;;;13.18;9.45;;;;;;;12.99;45.03;100159.73;1744431;81;21043;-64
2021/03/26 06:01:13;;;;;;;12.37;9.10;;;;;;;13.04;44.89;100161.04;1725791;81;21127;-64
2021/03/26 06:04:30;;;;;;;12.60;10.20;;;;;;;13.07;45.00;100166.04;1753317;81;21243;-64
2021/03/26 06:08:04;;;;;;;12.20;9.38;;;;;;;13.10;44.95;100167.86;1751016;79;21198;-63
2021/03/26 06:10:59;;;;;;;13.60;10.18;;;;;;;13.11;44.87;100160.68;1752985;81;21367;-62
2021/03/26 06:14:04;;;;;;;13.20;9.73;;;;;;;13.13;44.85;100156.86;1745322;79;21115;-64
2021/03/26 06:17:18;;;;;;;13.53;10.00;;;;;;;13.16;44.70;100160.49;1743956;81;21246;-68
2021/03/26 06:20:18;;;;;;;11.85;8.98;;;;;;;13.20;44.75;100158.81;1744107;81;21193;-64
2021/03/26 06:23:45;;;;;;;11.97;9.45;;;;;;;13.28;44.63;100156.09;1736689;79;28603;-64
2021/03/26 06:26:48;;;;;;;12.60;9.80;;;;;;;13.27;44.53;100159.28;1708415;82;21200;-63
2021/03/26 06:29:37;;;;;;;12.58;9.58;;;;;;;13.30;44.46;100160.27;1709284;82;21216;-65
2021/03/26 06:32:40;;;;;;;12.45;9.33;;;;;;;13.34;44.42;100159.42;1735341;81;21342;-64
2021/03/26 06:35:32;;;;;;;13.50;9.73;;;;;;;13.42;44.34;100162.03;1760205;79;29232;-65
2021/03/26 06:38:32;;;;;;;11.78;9.63;;;;;;;13.41;44.34;100171.06;1739360;80;21179;-63
2021/03/26 06:41:41;;;;;;;12.75;10.03;;;;;;;13.44;44.36;100169.36;1729761;80;22033;-64
2021/03/26 06:44:49;;;;;;;12.05;9.55;;;;;;;13.48;44.28;100161.36;1734110;80;21123;-65
2021/03/26 06:48:00;;;;;;;13.10;9.90;;;;;;;13.52;44.32;100169.81;1738608;81;21639;-66
2021/03/26 06:51:04;;;;;;;12.70;9.60;;;;;;;13.55;44.24;100164.95;1758319;80;21197;-64
2021/03/26 06:53:46;;;;;;;15.35;10.05;;;;;;;13.57;44.31;100166.94;1750079;79;21162;-65
2021/03/26 06:56:52;;;;;;;14.23;10.23;;;;;;;13.62;44.28;100166.91;1751198;79;21443;-66
2021/03/26 06:59:28;;;;;;;10.82;8.83;;;;;;;13.66;44.25;100172.25;1750604;79;21167;-65
2021/03/26 07:02:38;;;;;;;11.90;9.23;;;;;;;13.73;44.29;100166.50;1735639;79;28309;-64
2021/03/26 07:05:21;;;;;;;13.80;10.13;;;;;;;13.73;44.30;100164.69;1711033;82;21144;-64
2021/03/26 07:08:34;;;;;;;12.65;9.28;;;;;;;13.78;44.29;100166.81;1726507;81;22278;-63
2021/03/26 07:11:27;;;;;;;11.83;9.45;;;;;;;13.82;44.28;100163.28;1731525;81;21186;-64
2021/03/26 07:14:33;;;;;;;10.63;8.50;;;;;;;13.85;44.25;100166.43;1709730;81;25885;-64
2021/03/26 07:17:36;;;;;;;13.08;9.85;;;;;;;13.89;44.30;100165.05;1744473;81;21200;-62
2021/03/26 07:20:20;;;;;;;;;;;;;;;13.91;44.26;100167.05;1741482;81;21770;-64
2021/03/26 07:23:46;;;;;;;10.65;9.00;;;;;;;13.95;44.47;100164.33;1731175;81;21211;-64
2021/03/26 07:26:27;;;;;;;12.13;9.53;;;;;;;13.92;44.66;100166.53;1738252;81;21145;-67
2021/03/26 07:29:30;;;;;;;12.07;9.45;;;;;;;13.99;44.96;100167.48;1739925;81;21155;-62
2021/03/26 07:32:38;;;;;;;13.20;10.43;;;;;;;14.03;45.18;100167.44;1747340;81;21215;-64
2021/03/26 07:35:44;;;;;;;12.85;9.33;;;;;;;14.08;45.30;100166.89;1744508;81;21588;-65
2021/03/26 07:38:31;;;;;;;10.75;8.90;;;;;;;14.13;45.37;100172.02;1731817;81;21351;-63
2021/03/26 07:41:35;;;;;;;12.10;9.33;;;;;;;14.18;45.47;100170.64;1744705;82;21183;-64
2021/03/26 07:44:30;;;;;;;11.35;9.30;;;;;;;14.23;45.61;100172.27;1747661;81;21190;-62
2021/03/26 07:47:22;;;;;;;13.50;10.25;;;;;;;14.27;45.66;100178.39;1744766;81;21189;-64
2021/03/26 07:50:19;;;;;;;12.37;8.83;;;;;;;14.31;45.66;100175.72;1743981;80;21209;-62
2021/03/26 07:53:04;;;;;;;11.33;9.20;;;;;;;14.35;45.65;100177.00;1734183;81;21215;-63
2021/03/26 07:55:47;;;;;;;12.13;9.05;;;;;;;14.40;45.54;100171.62;1734443;82;21695;-61
2021/03/26 07:58:46;;;;;;;11.90;8.80;;;;;;;14.45;45.51;100183.94;1732514;81;21448;-63
2021/03/26 08:01:51;;;;;;;12.58;10.25;;;;;;;14.49;45.48;100179.88;1723102;81;21250;-64
2021/03/26 08:04:26;;;;;;;11.57;9.65;;;;;;;14.53;45.52;100181.17;1769762;78;21213;-64
2021/03/26 08:07:33;;;;;;;11.25;9.08;;;;;;;14.58;45.50;100183.31;1780539;78;21366;-63
2021/03/26 08:10:29;;;;;;;11.43;8.98;;;;;;;14.63;45.47;100183.09;1776868;79;21131;-64
2021/03/26 08:13:23;;;;;;;12.20;8.85;;;;;;;14.66;45.32;100190.77;1743342;80;21180;-63
2021/03/26 08:16:10;;;;;;;11.50;8.23;;;;;;;14.71;45.24;100186.19;1713432;82;21581;-62
2021/03/26 08:19:09;;;;;;;12.75;9.38;;;;;;;14.75;45.11;100187.47;1720690;81;21177;-63
2021/03/26 08:22:04;;;;;;;10.75;8.35;;;;;;;14.81;45.16;100187.25;1741164;81;21397;-64
2021/03/26 08:24:56;;;;;;;10.58;7.97;;;;;;;14.84;45.14;100188.22;1734860;82;21183;-64
2021/03/26 08:27:56;;;;;;;9.00;8.03;;;;;;;14.89;44.98;100185.31;1722101;82;21147;-66
2021/03/26 08:30:35;;;;;;;9.95;8.13;;;;;;;14.94;45.08;100190.92;1731081;81;21162;-64
2021/03/26 08:33:28;;;;;;;11.63;7.87;;;;;;;14.98;45.08;100183.36;1737222;81;21083;-64
2021/03/26 08:36:24;;;;;;;11.15;8.70;;;;;;;15.04;44.99;100188.47;1735126;81;21208;-63
2021/03/26 08:39:34;;;;;;;9.70;8.10;;;;;;;15.08;45.08;100183.06;1738862;81;21251;-62
2021/03/26 08:42:20;;;;;;;10.50;7.85;;;;;;;15.14;44.99;100182.31;1725299;81;21170;-62
2021/03/26 08:45:13;;;;;;;10.18;7.85;;;;;;;15.19;45.06;100187.95;1723071;82;21173;-62
2021/03/26 08:48:02;;;;;;;13.62;8.43;;;;;;;15.24;45.07;100187.38;1729283;82;21154;-70
2021/03/26 08:51:03;;;;;;;9.60;8.03;;;;;;;15.31;45.01;100192.30;1735686;81;21449;-71
2021/03/26 08:53:55;;;;;;;9.98;7.65;;;;;;;15.36;45.08;100195.26;1775121;79;21138;-68
2021/03/26 08:57:08;;;;;;;10.90;7.70;;;;;;;15.41;45.05;100186.65;1784361;78;21267;-71
2021/03/26 09:00:20;;;;;;;9.83;7.70;;;;;;;15.46;45.07;100195.77;1780296;80;21277;-69
2021/03/26 09:03:19;;;;;;;9.45;7.72;;;;;;;15.52;44.81;100191.52;1777968;80;21172;-68
2021/03/26 09:06:14;;;;;;;9.25;7.42;;;;;;;15.59;44.83;100196.93;1777554;80;21358;-67
2021/03/26 09:08:59;;;;;;;9.10;6.97;;;;;;;15.65;44.91;100198.88;1783727;80;21194;-68
2021/03/26 09:11:47;;;;;;;8.43;6.95;;;;;;;15.71;44.75;100198.11;1781407;80;21139;-69
2021/03/26 09:14:52;;;;;;;9.13;6.80;;;;;;;15.79;44.61;100194.50;1781901;80;21177;-72
2021/03/26 09:17:29;;;;;;;10.88;7.62;;;;;;;15.88;44.49;100200.88;1775917;80;21174;-70
2021/03/26 09:20:07;;;;;;;9.50;7.20;;;;;;;15.97;44.42;100194.87;1771744;78;21149;-66
2021/03/26 09:23:10;;;;;;;11.63;6.80;;;;;;;16.06;44.66;100175.48;1781535;78;21118;-71
2021/03/26 09:25:46;;;;;;;8.55;6.45;;;;;;;16.21;50.79;100205.70;1783899;80;21429;-69
2021/03/26 09:28:25;;;;;;;9.75;6.35;;;;;;;16.33;48.14;100197.14;1784107;79;21162;-67
2021/03/26 09:31:07;;;;;;;9.45;6.72;;;;;;;16.54;48.39;100209.16;1773454;78;21170;-68
2021/03/26 09:33:37;;;;;;;8.73;6.50;;;;;;;16.67;49.46;100204.41;1777131;78;21471;-68
2021/03/26 09:36:10;;;;;;;8.95;6.12;;;;;;;16.78;49.92;100198.46;1765365;80;21173;-71
2021/03/26 09:38:42;;;;;;;8.13;6.12;;;;;;;16.88;49.92;100198.98;1753911;80;21150;-67
2021/03/26 09:41:30;;;;;;;7.92;6.03;;;;;;;17.00;49.52;100201.11;1774945;78;22219;-69
2021/03/26 09:44:06;;;;;;;7.90;5.58;;;;;;;17.12;49.28;100198.16;1787175;78;21161;-69
2021/03/26 09:46:48;;;;;;;7.08;5.55;;;;;;;17.22;48.89;100197.79;1721685;83;21194;-69
2021/03/26 09:49:43;;;;;;;8.28;6.15;;;;;;;17.35;48.32;100207.77;1722527;81;21175;-70
2021/03/26 09:52:20;;;;;;;;;;;;;;;17.46;48.42;100203.98;1737847;81;21663;-71
2021/03/26 09:54:53;;;;;;;7.65;5.25;;;;;;;17.60;48.92;100208.05;1739046;81;20281;-70
2021/03/26 09:57:45;;;;;;;7.85;6.17;;;;;;;17.65;49.28;100207.76;1708301;81;21126;-69
2021/03/26 10:00:24;;;;;;;7.00;5.65;;;;;;;17.79;49.69;100205.92;1783333;78;21625;-68
2021/03/26 10:03:13;;;;;;;7.10;4.92;;;;;;;17.93;49.49;100205.97;1767744;80;21213;-67
2021/03/26 10:06:02;;;;;;;6.62;5.00;;;;;;;18.05;49.27;100199.77;1770757;79;21131;-68
2021/03/26 10:11:47;;;;;;;7.10;5.90;;;;;;;18.33;49.02;100207.31;1749589;81;21184;-66
2021/03/26 10:14:19;;;;;;;7.28;5.45;;;;;;;18.46;48.62;100202.75;1723021;81;21285;-68
2021/03/26 10:16:51;;;;;;;8.38;5.22;;;;;;;18.60;48.22;100202.73;1722882;82;21360;-69
2021/03/26 10:19:34;;;;;;;6.08;4.95;;;;;;;18.74;47.67;100202.22;1711418;82;21581;-67
2021/03/26 10:22:04;;;;;;;5.45;4.58;;;;;;;18.88;47.14;100201.16;1752758;81;21161;-70
2021/03/26 10:24:36;;;;;;;7.05;5.67;;;;;;;19.01;47.05;100198.43;1752482;80;21180;-70
2021/03/26 10:27:19;;;;;;;6.42;4.87;;;;;;;19.17;46.77;100200.34;1750757;80;21369;-70
2021/03/26 10:29:55;;;;;;;9.40;5.20;;;;;;;19.30;46.51;100201.63;1733594;81;21205;-69
2021/03/26 10:32:26;;;;;;;5.35;4.45;;;;;;;19.45;46.52;100197.30;1745520;81;21127;-70
2021/03/26 10:34:56;;;;;;;5.65;4.65;;;;;;;19.58;46.15;100187.80;1741479;81;21141;-67
2021/03/26 10:37:43;;;;;;;5.92;4.70;;;;;;;19.73;45.85;100186.19;1707207;83;21181;-66
2021/03/26 10:40:36;;;;;;;6.30;4.70;;;;;;;19.88;45.53;100192.63;1741141;81;21448;-68
2021/03/26 10:43:12;;;;;;;5.60;4.70;;;;;;;20.03;45.39;100186.92;1753334;81;21223;-66
2021/03/26 10:45:46;;;;;;;5.50;4.40;;;;;;;20.19;45.12;100176.92;1768489;79;21156;-67
2021/03/26 10:48:46;;;;;;;5.85;4.62;;;;;;;20.34;44.68;100179.79;1767693;81;21115;-67
2021/03/26 10:51:48;;;;;;;4.72;3.95;;;;;;;20.51;44.28;100188.97;1742359;81;21192;-70
2021/03/26 10:54:24;;;;;;;6.05;4.50;;;;;;;20.73;43.81;100173.22;1667525;84;21314;-68
2021/03/26 10:57:13;;;;;;;6.20;4.70;;;;;;;21.19;43.26;100180.48;1744087;81;21180;-74
2021/03/26 10:59:55;;;;;;;4.50;3.83;;;;;;;21.65;42.68;100180.91;1748617;81;21183;-74
2021/03/26 11:03:01;;;;;;;5.87;5.27;;;;;;;22.20;41.88;100191.50;1683690;82;21223;-73
2021/03/26 11:05:56;;;;;;;5.08;3.85;;;;;;;22.78;41.09;100191.23;1718321;82;21099;-73
2021/03/26 11:08:27;;;;;;;;;;;;;;;23.46;40.18;100187.47;1732654;81;22436;-71
2021/03/26 11:11:13;;;;;;;4.62;3.80;;;;;;;24.06;39.44;100178.78;1732380;82;20306;-70
2021/03/26 11:14:14;;;;;;;4.67;3.92;;;;;;;24.53;38.92;100193.91;1735872;81;21159;-73
2021/03/26 11:16:47;;;;;;;5.08;3.98;;;;;;;25.06;38.32;100193.81;1731331;82;21159;-69
2021/03/26 11:20:07;;;;;;;4.83;4.28;;;;;;;25.51;37.45;100179.66;1736005;82;21198;-72
2021/03/26 11:22:35;;;;;;;4.28;3.87;;;;;;;25.65;37.15;100189.58;1724803;81;21389;-73
2021/03/26 11:25:10;;;;;;;5.22;4.10;;;;;;;25.72;37.01;100190.75;1735759;81;21139;-73
2021/03/26 11:27:49;;;;;;;3.77;3.37;;;;;;;25.68;37.15;100187.17;1730476;82;21222;-69
2021/03/26 11:30:38;;;;;;;4.58;3.98;;;;;;;25.59;37.29;100179.19;1698496;81;21254;-72
2021/03/26 11:33:32;;;;;;;5.30;3.80;;;;;;;25.48;37.47;100176.11;1722495;82;21650;-69
2021/03/26 11:36:00;;;;;;;3.92;3.52;;;;;;;25.45;37.57;100185.58;1724184;82;21461;-69
2021/03/26 11:38:30;;;;;;;5.17;3.77;;;;;;;25.55;37.50;100173.17;1769503;79;21217;-72
2021/03/26 11:41:14;;;;;;;4.17;3.65;;;;;;;25.69;37.32;100177.95;1776661;80;21401;-72
2021/03/26 11:43:44;;;;;;;5.65;3.92;;;;;;;25.84;37.15;100169.08;1789185;79;21146;-71
2021/03/26 11:46:16;;;;;;;4.20;3.58;;;;;;;26.15;36.96;100178.08;1776467;79;21154;-72
2021/03/26 11:48:58;;;;;;;3.62;3.33;;;;;;;26.38;36.69;100179.05;1776353;79;21605;-70
2021/03/26 11:51:40;;;;;;;5.28;3.70;;;;;;;26.61;36.45;100169.69;1768723;79;21240;-71
2021/03/26 11:54:42;;;;;;;3.95;3.45;;;;;;;26.85;36.07;100166.55;1774247;80;21180;-72
2021/03/26 11:57:40;;;;;;;3.85;3.17;;;;;;;27.10;35.82;100164.47;1775258;79;21213;-70
2021/03/26 12:00:26;;;;;;;4.08;3.50;;;;;;;27.34;35.57;100161.29;1767664;79;21154;-70
2021/03/26 12:03:22;;;;;;;3.67;3.20;;;;;;;27.54;35.42;100164.59;1751783;79;21135;-71
2021/03/26 12:06:17;;;;;;;3.60;3.27;;;;;;;27.72;35.26;100159.14;1730263;81;21185;-69
2021/03/26 12:09:04;;;;;;;3.70;3.35;;;;;;;27.89;35.18;100147.99;1733434;81;21216;-71
2021/03/26 12:11:57;;;;;;;6.12;4.12;;;;;;;28.03;35.07;100151.27;1743613;80;21205;-68
2021/03/26 12:14:46;;;;;;;6.83;4.95;;;;;;;28.17;35.03;100149.34;1736112;80;21199;-68
2021/03/26 12:17:34;;;;;;;6.62;5.12;;;;;;;28.36;35.75;100147.67;1741704;81;21357;-68
2021/03/26 12:20:08;;;;;;;8.20;4.87;;;;;;;28.55;35.96;100142.98;1745986;81;21198;-67
2021/03/26 12:23:00;;;;;;;8.73;4.55;;;;;;;28.75;35.74;100145.66;1735945;81;21218;-67
2021/03/26 12:25:52;;;;;;;6.15;4.90;;;;;;;28.91;35.43;100138.77;1747933;80;21175;-68
2021/03/26 12:28:43;;;;;;;7.33;5.10;;;;;;;29.08;34.76;100144.70;1734897;80;21196;-69
2021/03/26 12:31:19;;;;;;;5.72;4.45;;;;;;;29.21;34.29;100140.56;1747495;81;21168;-68
2021/03/26 12:34:01;;;;;;;5.50;4.50;;;;;;;29.32;33.94;100137.20;1741493;81;21583;-68
2021/03/26 12:36:53;;;;;;;8.35;4.20;;;;;;;29.41;33.50;100138.23;1747055;81;21349;-68
2021/03/26 12:39:32;;;;;;;6.83;4.60;;;;;;;29.45;33.21;100128.36;1734612;81;21144;-69
2021/03/26 12:42:19;;;;;;;7.15;4.45;;;;;;;29.56;32.76;100135.39;1745365;81;21641;-68
2021/03/26 12:45:01;;;;;;;6.35;3.90;;;;;;;29.64;32.56;100128.49;1745227;80;21257;-68